Louisa, VA (23093)

4:51 AM EDT on May 29, 2017 (GMT -0400)
Louisa - Northside | | Change Station
Active Advisory: Special Statement

Elev 371 ft 38.04 °N, 78.01 °W | Updated 4 minutes ago

Overcast
Overcast
63.9 °F
Feels Like 63.9 °F
N
0.0
Wind Variable Wind from NW
Gusts 2.0 mph

Today
High -- | Low -- °F
--% Chance of Precip.
Yesterday
High -- | Low -- °F
Precip. -- in
Pressure 29.80 in
Visibility 1.2 miles
Clouds Overcast 300 ft
Dew Point 63 °F
Humidity 97%
Rainfall 0.00 in
Snow Depth Not available.
5:52 AM 8:27 PM
Waxing Crescent, 18% visible
METAR KLKU 290835Z AUTO 00000KT 1 1/4SM BR OVC003 20/20 A2980 RMK AO2
Pressure 29.80 in
Visibility 1.2 miles
Clouds Overcast 300 ft
Dew Point 63 °F
Humidity 97%
Rainfall 0.00 in
Snow Depth Not available.
5:52 AM 8:27 PM
Waxing Crescent, 18% visible
METAR KLKU 290835Z AUTO 00000KT 1 1/4SM BR OVC003 20/20 A2980 RMK AO2

Get Your Daily Forecast Email!

Thanks for signing up!

Be on the lookout for a verification email in your inbox.

You'll start receiving severe weather alerts in your inbox..

×

10-Day Weather Forecast

Almanac

Astronomy

May. 29, 2017 Rise Set
Actual Time
Civil Twilight
Nautical Twilight
Astronomical Twilight
Moon
Length of Visible Light
Length of Day
Tomorrow will be .
, % of the Moon is Illuminated

Today's Extremes

State Highs State Lows

Community

WunderPhotos

Category 6

Welcome to Category 6. This is the collective home for Weather Underground's featured writeups by Dr. Jeff Masters (right), Bob Henson (left), Chris Burt, and other regular contributors.

Nearby

Air Quality

  Air Quality AQ Index Pollutant
Not available.

Snow Depth

Station Depth Elevation

Earthquake Activity

City Distance Mag. Time & Date
Minimum magnitude displayed is 2.5.

Coastal Water Temperatures

Place Temperature

Stations

Nearby Weather Stations

Station Location Temp. Windchill Dew Point Humidity Wind Precip. Elev Updated Type
                   

Watches & Warnings

Special Statement
Issued: 4:28 AM EDT May. 29, 2017 – National Weather Service

... Areas of fog across the eastern Virginia Piedmont and south
central Virginia...

Areas of fog have developed this morning across the eastern
Virginia Piedmont and south central Virginia. Visibility is
generally one mile or less, with some locally dense fog with a
visibility of one quarter mile or less. The fog should lift after
8 am.

Motorists should be alert for sudden changes in visibility due to
the areas of dense fog. Drive at reduced speeds and use low beam
headlights only.